sensor_id;sensor_type;location;lat;lon;timestamp;pressure;altitude;pressure_sealevel;temperature;humidity
29825;BME280;16713;52.916;12.834;2022-12-18T00:01:20;102596.59;;;-3.99;72.59
29825;BME280;16713;52.916;12.834;2022-12-18T00:03:47;102598.84;;;-3.96;73.18
29825;BME280;16713;52.916;12.834;2022-12-18T00:06:15;102603.78;;;-3.93;71.94
29825;BME280;16713;52.916;12.834;2022-12-18T00:08:42;102603.44;;;-4.03;72.68
29825;BME280;16713;52.916;12.834;2022-12-18T00:11:12;102603.22;;;-4.08;72.24
29825;BME280;16713;52.916;12.834;2022-12-18T00:13:39;102610.44;;;-4.08;72.12
29825;BME280;16713;52.916;12.834;2022-12-18T00:16:08;102605.69;;;-4.00;72.45
29825;BME280;16713;52.916;12.834;2022-12-18T00:18:35;102603.81;;;-4.06;72.80
29825;BME280;16713;52.916;12.834;2022-12-18T00:21:05;102599.13;;;-4.17;73.09
29825;BME280;16713;52.916;12.834;2022-12-18T00:23:33;102597.03;;;-4.08;73.31
29825;BME280;16713;52.916;12.834;2022-12-18T00:26:02;102602.59;;;-4.03;72.93
29825;BME280;16713;52.916;12.834;2022-12-18T00:28:29;102599.28;;;-4.05;73.07
29825;BME280;16713;52.916;12.834;2022-12-18T00:31:07;102604.03;;;-4.07;72.67
29825;BME280;16713;52.916;12.834;2022-12-18T00:33:34;102604.88;;;-4.07;73.22
29825;BME280;16713;52.916;12.834;2022-12-18T00:36:03;102605.72;;;-4.13;73.18
29825;BME280;16713;52.916;12.834;2022-12-18T00:38:30;102603.88;;;-4.12;72.40
29825;BME280;16713;52.916;12.834;2022-12-18T00:40:57;102607.13;;;-4.04;73.02
29825;BME280;16713;52.916;12.834;2022-12-18T00:43:23;102609.00;;;-4.11;72.57
29825;BME280;16713;52.916;12.834;2022-12-18T00:45:50;102611.28;;;-4.08;72.64
29825;BME280;16713;52.916;12.834;2022-12-18T00:48:16;102610.63;;;-4.03;72.30
29825;BME280;16713;52.916;12.834;2022-12-18T00:50:43;102610.19;;;-4.00;72.39
29825;BME280;16713;52.916;12.834;2022-12-18T00:53:09;102618.69;;;-4.10;72.17
29825;BME280;16713;52.916;12.834;2022-12-18T00:55:39;102613.94;;;-4.08;72.08
29825;BME280;16713;52.916;12.834;2022-12-18T00:58:07;102612.09;;;-4.14;72.60
29825;BME280;16713;52.916;12.834;2022-12-18T01:00:34;102609.00;;;-4.11;73.29
29825;BME280;16713;52.916;12.834;2022-12-18T01:03:01;102611.28;;;-4.08;72.56
29825;BME280;16713;52.916;12.834;2022-12-18T01:05:28;102612.28;;;-4.09;72.99
29825;BME280;16713;52.916;12.834;2022-12-18T01:07:56;102610.44;;;-4.08;72.70
29825;BME280;16713;52.916;12.834;2022-12-18T01:10:23;102620.09;;;-4.07;73.22
29825;BME280;16713;52.916;12.834;2022-12-18T01:12:50;102625.88;;;-4.04;72.73
29825;BME280;16713;52.916;12.834;2022-12-18T01:15:16;102627.94;;;-4.06;73.06
29825;BME280;16713;52.916;12.834;2022-12-18T01:17:43;102637.63;;;-4.05;72.63
29825;BME280;16713;52.916;12.834;2022-12-18T01:20:11;102637.44;;;-4.10;72.90
29825;BME280;16713;52.916;12.834;2022-12-18T01:22:38;102640.94;;;-4.03;72.09
29825;BME280;16713;52.916;12.834;2022-12-18T01:25:05;102640.13;;;-4.10;72.12
29825;BME280;16713;52.916;12.834;2022-12-18T01:27:33;102652.31;;;-4.20;72.18
29825;BME280;16713;52.916;12.834;2022-12-18T01:30:00;102643.44;;;-4.27;72.79
29825;BME280;16713;52.916;12.834;2022-12-18T01:32:29;102658.28;;;-4.31;73.27
29825;BME280;16713;52.916;12.834;2022-12-18T01:34:56;102655.81;;;-4.26;72.46
29825;BME280;16713;52.916;12.834;2022-12-18T01:37:23;102655.81;;;-4.26;73.59
29825;BME280;16713;52.916;12.834;2022-12-18T01:39:49;102661.78;;;-4.24;73.00
29825;BME280;16713;52.916;12.834;2022-12-18T01:42:16;102662.19;;;-4.27;72.73
29825;BME280;16713;52.916;12.834;2022-12-18T01:47:52;102658.47;;;-4.20;73.53
29825;BME280;16713;52.916;12.834;2022-12-18T01:50:35;102668.75;;;-4.17;73.21
29825;BME280;16713;52.916;12.834;2022-12-18T01:53:06;102671.25;;;-4.22;73.26
29825;BME280;16713;52.916;12.834;2022-12-18T01:55:40;102674.13;;;-4.17;73.36
29825;BME280;16713;52.916;12.834;2022-12-18T01:58:09;102668.75;;;-4.17;72.90
29825;BME280;16713;52.916;12.834;2022-12-18T02:00:36;102668.78;;;-4.23;73.08
29825;BME280;16713;52.916;12.834;2022-12-18T02:03:03;102669.59;;;-4.23;72.72
29825;BME280;16713;52.916;12.834;2022-12-18T02:05:46;102667.34;;;-4.26;72.98
29825;BME280;16713;52.916;12.834;2022-12-18T02:08:31;102661.56;;;-4.23;73.18
29825;BME280;16713;52.916;12.834;2022-12-18T02:11:28;102660.34;;;-4.27;72.08
29825;BME280;16713;52.916;12.834;2022-12-18T02:14:30;102675.38;;;-4.26;72.87
29825;BME280;16713;52.916;12.834;2022-12-18T02:17:06;102667.13;;;-4.18;73.05
29825;BME280;16713;52.916;12.834;2022-12-18T02:27:37;102669.59;;;-4.29;71.96
29825;BME280;16713;52.916;12.834;2022-12-18T02:30:06;102671.28;;;-4.35;72.03
29825;BME280;16713;52.916;12.834;2022-12-18T02:32:38;102677.00;;;-4.25;72.67
29825;BME280;16713;52.916;12.834;2022-12-18T02:35:09;102667.97;;;-4.30;72.50
29825;BME280;16713;52.916;12.834;2022-12-18T02:37:39;102668.59;;;-4.35;71.89
29825;BME280;16713;52.916;12.834;2022-12-18T02:40:07;102658.69;;;-4.34;72.46
29825;BME280;16713;52.916;12.834;2022-12-18T02:42:34;102668.19;;;-4.32;72.04
29825;BME280;16713;52.916;12.834;2022-12-18T02:45:01;102657.28;;;-4.37;71.98
29825;BME280;16713;52.916;12.834;2022-12-18T02:47:31;102656.22;;;-4.36;72.02
29825;BME280;16713;52.916;12.834;2022-12-18T02:57:48;102650.88;;;-4.42;72.26
29825;BME280;16713;52.916;12.834;2022-12-18T03:00:20;102663.47;;;-4.43;72.18
29825;BME280;16713;52.916;12.834;2022-12-18T03:02:58;102665.50;;;-4.25;71.92
29825;BME280;16713;52.916;12.834;2022-12-18T03:05:36;102656.63;;;-4.26;71.92
29825;BME280;16713;52.916;12.834;2022-12-18T03:08:16;102665.09;;;-4.35;72.44
29825;BME280;16713;52.916;12.834;2022-12-18T03:10:53;102651.91;;;-4.37;72.41
29825;BME280;16713;52.916;12.834;2022-12-18T03:13:27;102656.22;;;-4.42;71.75
29825;BME280;16713;52.916;12.834;2022-12-18T03:15:56;102661.78;;;-4.44;72.22
29825;BME280;16713;52.916;12.834;2022-12-18T03:18:29;102660.16;;;-4.45;72.68
29825;BME280;16713;52.916;12.834;2022-12-18T03:20:58;102662.00;;;-4.39;72.17
29825;BME280;16713;52.916;12.834;2022-12-18T03:23:29;102651.50;;;-4.40;72.73
29825;BME280;16713;52.916;12.834;2022-12-18T03:26:00;102659.31;;;-4.39;72.67
29825;BME280;16713;52.916;12.834;2022-12-18T03:28:36;102665.31;;;-4.37;72.20
29825;BME280;16713;52.916;12.834;2022-12-18T03:31:04;102669.41;;;-4.47;72.98
29825;BME280;16713;52.916;12.834;2022-12-18T03:34:01;102668.81;;;-4.36;71.92
29825;BME280;16713;52.916;12.834;2022-12-18T03:36:29;102665.31;;;-4.43;71.86
29825;BME280;16713;52.916;12.834;2022-12-18T03:38:57;102662.63;;;-4.43;72.63
29825;BME280;16713;52.916;12.834;2022-12-18T03:41:47;102676.84;;;-4.49;72.28
29825;BME280;16713;52.916;12.834;2022-12-18T03:47:16;102678.69;;;-4.37;72.06
29825;BME280;16713;52.916;12.834;2022-12-18T03:49:50;102682.19;;;-4.36;72.14
29825;BME280;16713;52.916;12.834;2022-12-18T03:54:48;102676.00;;;-4.37;71.57
29825;BME280;16713;52.916;12.834;2022-12-18T03:57:19;102678.91;;;-4.38;72.10
29825;BME280;16713;52.916;12.834;2022-12-18T03:59:47;102674.56;;;-4.39;72.31
29825;BME280;16713;52.916;12.834;2022-12-18T04:02:16;102677.03;;;-4.38;72.06
29825;BME280;16713;52.916;12.834;2022-12-18T04:04:45;102682.59;;;-4.46;71.65
29825;BME280;16713;52.916;12.834;2022-12-18T04:07:13;102682.00;;;-4.41;71.62
29825;BME280;16713;52.916;12.834;2022-12-18T04:09:41;102675.59;;;-4.40;71.82
29825;BME280;16713;52.916;12.834;2022-12-18T04:12:08;102680.75;;;-4.39;71.22
29825;BME280;16713;52.916;12.834;2022-12-18T04:14:35;102687.56;;;-4.43;71.75
29825;BME280;16713;52.916;12.834;2022-12-18T04:17:02;102702.59;;;-4.48;71.40
29825;BME280;16713;52.916;12.834;2022-12-18T04:19:29;102703.84;;;-4.51;71.45
29825;BME280;16713;52.916;12.834;2022-12-18T04:21:55;102711.22;;;-4.53;71.75
29825;BME280;16713;52.916;12.834;2022-12-18T04:24:21;102694.75;;;-4.56;71.93
29825;BME280;16713;52.916;12.834;2022-12-18T04:26:48;102699.91;;;-4.55;71.67
29825;BME280;16713;52.916;12.834;2022-12-18T04:29:14;102704.84;;;-4.58;72.19
29825;BME280;16713;52.916;12.834;2022-12-18T04:31:41;102711.84;;;-4.64;71.78
29825;BME280;16713;52.916;12.834;2022-12-18T04:34:07;102715.75;;;-4.60;71.39
29825;BME280;16713;52.916;12.834;2022-12-18T04:36:34;102720.09;;;-4.59;71.22
29825;BME280;16713;52.916;12.834;2022-12-18T04:39:00;102722.97;;;-4.60;71.05
29825;BME280;16713;52.916;12.834;2022-12-18T04:41:26;102724.19;;;-4.63;71.39
29825;BME280;16713;52.916;12.834;2022-12-18T04:43:53;102727.69;;;-4.62;71.44
29825;BME280;16713;52.916;12.834;2022-12-18T04:46:19;102724.59;;;-4.66;72.35
29825;BME280;16713;52.916;12.834;2022-12-18T04:48:46;102721.50;;;-4.63;72.15
29825;BME280;16713;52.916;12.834;2022-12-18T04:51:13;102725.66;;;-4.67;71.61
29825;BME280;16713;52.916;12.834;2022-12-18T04:53:39;102728.72;;;-4.63;71.41
29825;BME280;16713;52.916;12.834;2022-12-18T04:56:10;102737.16;;;-4.60;72.27
29825;BME280;16713;52.916;12.834;2022-12-18T04:58:37;102742.31;;;-4.65;71.66
29825;BME280;16713;52.916;12.834;2022-12-18T05:01:04;102734.91;;;-4.63;71.82
29825;BME280;16713;52.916;12.834;2022-12-18T05:03:31;102740.69;;;-4.59;71.80
29825;BME280;16713;52.916;12.834;2022-12-18T05:05:57;102739.84;;;-4.60;72.03
29825;BME280;16713;52.916;12.834;2022-12-18T05:08:24;102750.75;;;-4.55;71.41
29825;BME280;16713;52.916;12.834;2022-12-18T05:11:08;102746.03;;;-4.53;71.71
29825;BME280;16713;52.916;12.834;2022-12-18T05:13:36;102738.22;;;-4.54;71.05
29825;BME280;16713;52.916;12.834;2022-12-18T05:16:05;102742.53;;;-4.53;72.00
29825;BME280;16713;52.916;12.834;2022-12-18T05:18:32;102742.31;;;-4.58;71.81
29825;BME280;16713;52.916;12.834;2022-12-18T05:20:58;102743.13;;;-4.64;71.34
29825;BME280;16713;52.916;12.834;2022-12-18T05:23:25;102744.16;;;-4.46;71.36
29825;BME280;16713;52.916;12.834;2022-12-18T05:25:56;102748.50;;;-4.58;71.41
29825;BME280;16713;52.916;12.834;2022-12-18T05:28:25;102751.19;;;-4.58;71.07
29825;BME280;16713;52.916;12.834;2022-12-18T05:30:53;102756.09;;;-4.61;71.12
29825;BME280;16713;52.916;12.834;2022-12-18T05:33:21;102757.53;;;-4.72;71.17
29825;BME280;16713;52.916;12.834;2022-12-18T05:35:53;102745.81;;;-4.71;71.56
29825;BME280;16713;52.916;12.834;2022-12-18T05:38:21;102739.44;;;-4.76;71.73
29825;BME280;16713;52.916;12.834;2022-12-18T05:40:48;102750.31;;;-4.78;71.45
29825;BME280;16713;52.916;12.834;2022-12-18T05:43:15;102746.81;;;-4.78;71.70
29825;BME280;16713;52.916;12.834;2022-12-18T05:45:47;102751.56;;;-4.74;71.48
29825;BME280;16713;52.916;12.834;2022-12-18T05:48:14;102738.38;;;-4.75;71.45
29825;BME280;16713;52.916;12.834;2022-12-18T05:50:43;102740.84;;;-4.74;71.17
29825;BME280;16713;52.916;12.834;2022-12-18T05:53:13;102740.88;;;-4.67;71.14
29825;BME280;16713;52.916;12.834;2022-12-18T05:55:41;102740.03;;;-4.68;71.28
29825;BME280;16713;52.916;12.834;2022-12-18T05:58:09;102751.56;;;-4.67;71.41
29825;BME280;16713;52.916;12.834;2022-12-18T06:00:40;102756.28;;;-4.69;71.46
29825;BME280;16713;52.916;12.834;2022-12-18T06:03:08;102769.88;;;-4.77;71.03
29825;BME280;16713;52.916;12.834;2022-12-18T06:05:45;102767.81;;;-4.75;71.43
29825;BME280;16713;52.916;12.834;2022-12-18T06:08:12;102770.50;;;-4.75;71.20
29825;BME280;16713;52.916;12.834;2022-12-18T06:10:40;102772.53;;;-4.84;71.11
29825;BME280;16713;52.916;12.834;2022-12-18T06:13:07;102773.59;;;-4.78;71.14
29825;BME280;16713;52.916;12.834;2022-12-18T06:15:36;102769.66;;;-4.76;71.26
29825;BME280;16713;52.916;12.834;2022-12-18T06:18:03;102777.69;;;-4.76;71.41
29825;BME280;16713;52.916;12.834;2022-12-18T06:20:30;102795.41;;;-4.81;70.84
29825;BME280;16713;52.916;12.834;2022-12-18T06:22:59;102803.81;;;-4.78;71.67
29825;BME280;16713;52.916;12.834;2022-12-18T06:25:25;102793.31;;;-4.79;71.52
29825;BME280;16713;52.916;12.834;2022-12-18T06:27:52;102788.63;;;-4.71;71.40
29825;BME280;16713;52.916;12.834;2022-12-18T06:30:18;102791.69;;;-4.74;71.08
29825;BME280;16713;52.916;12.834;2022-12-18T06:32:45;102787.38;;;-4.75;71.71
29825;BME280;16713;52.916;12.834;2022-12-18T06:35:17;102812.09;;;-4.66;70.84
29825;BME280;16713;52.916;12.834;2022-12-18T06:37:44;102805.72;;;-4.65;70.88
29825;BME280;16713;52.916;12.834;2022-12-18T06:40:10;102811.66;;;-4.70;71.07
29825;BME280;16713;52.916;12.834;2022-12-18T06:42:36;102803.03;;;-4.72;71.16
29825;BME280;16713;52.916;12.834;2022-12-18T06:45:03;102797.06;;;-4.74;71.34
29825;BME280;16713;52.916;12.834;2022-12-18T06:47:30;102780.59;;;-4.64;70.67
29825;BME280;16713;52.916;12.834;2022-12-18T06:49:56;102782.03;;;-4.75;70.40
29825;BME280;16713;52.916;12.834;2022-12-18T06:52:22;102784.50;;;-4.73;70.85
29825;BME280;16713;52.916;12.834;2022-12-18T06:54:49;102791.28;;;-4.71;71.40
29825;BME280;16713;52.916;12.834;2022-12-18T06:57:15;102811.28;;;-4.73;70.96
29825;BME280;16713;52.916;12.834;2022-12-18T06:59:42;102813.13;;;-4.74;70.13
29825;BME280;16713;52.916;12.834;2022-12-18T07:02:11;102806.31;;;-4.76;70.85
29825;BME280;16713;52.916;12.834;2022-12-18T07:04:38;102811.69;;;-4.76;71.21
29825;BME280;16713;52.916;12.834;2022-12-18T07:07:05;102809.59;;;-4.74;71.04
29825;BME280;16713;52.916;12.834;2022-12-18T07:09:31;102819.88;;;-4.78;70.57
29825;BME280;16713;52.916;12.834;2022-12-18T07:11:58;102816.81;;;-4.75;70.90
29825;BME280;16713;52.916;12.834;2022-12-18T07:14:24;102816.81;;;-4.75;70.83
29825;BME280;16713;52.916;12.834;2022-12-18T07:16:51;102819.28;;;-4.80;70.79
29825;BME280;16713;52.916;12.834;2022-12-18T07:19:17;102808.81;;;-4.75;71.07
29825;BME280;16713;52.916;12.834;2022-12-18T07:21:44;102811.03;;;-4.78;71.33
29825;BME280;16713;52.916;12.834;2022-12-18T07:24:10;102801.16;;;-4.78;70.91
29825;BME280;16713;52.916;12.834;2022-12-18T07:26:36;102805.69;;;-4.78;70.39
29825;BME280;16713;52.916;12.834;2022-12-18T07:29:03;102798.66;;;-4.79;70.76
29825;BME280;16713;52.916;12.834;2022-12-18T07:31:29;102801.97;;;-4.84;70.73
29825;BME280;16713;52.916;12.834;2022-12-18T07:33:56;102801.34;;;-4.79;70.65
29825;BME280;16713;52.916;12.834;2022-12-18T07:36:23;102796.84;;;-4.79;71.22
29825;BME280;16713;52.916;12.834;2022-12-18T07:38:50;102804.66;;;-4.77;71.03
29825;BME280;16713;52.916;12.834;2022-12-18T07:41:18;102807.09;;;-4.82;70.69
29825;BME280;16713;52.916;12.834;2022-12-18T07:43:45;102807.53;;;-4.79;71.23
29825;BME280;16713;52.916;12.834;2022-12-18T07:46:12;102809.34;;;-4.86;71.29
29825;BME280;16713;52.916;12.834;2022-12-18T07:48:42;102805.84;;;-4.93;71.18
29825;BME280;16713;52.916;12.834;2022-12-18T07:51:11;102811.03;;;-4.85;71.00
29825;BME280;16713;52.916;12.834;2022-12-18T07:53:39;102819.06;;;-4.85;71.07
29825;BME280;16713;52.916;12.834;2022-12-18T07:56:09;102834.66;;;-4.88;71.36
29825;BME280;16713;52.916;12.834;2022-12-18T07:58:56;102833.88;;;-4.76;71.49
29825;BME280;16713;52.916;12.834;2022-12-18T08:01:22;102842.28;;;-4.85;71.12
29825;BME280;16713;52.916;12.834;2022-12-18T08:03:49;102859.19;;;-4.85;71.05
29825;BME280;16713;52.916;12.834;2022-12-18T08:06:18;102858.94;;;-4.90;71.49
29825;BME280;16713;52.916;12.834;2022-12-18T08:08:48;102864.94;;;-4.88;71.94
29825;BME280;16713;52.916;12.834;2022-12-18T08:11:15;102870.69;;;-4.91;72.18
29825;BME280;16713;52.916;12.834;2022-12-18T08:13:41;102865.97;;;-4.82;71.93
29825;BME280;16713;52.916;12.834;2022-12-18T08:16:08;102869.25;;;-4.87;71.90
29825;BME280;16713;52.916;12.834;2022-12-18T08:18:36;102865.81;;;-4.74;71.84
29825;BME280;16713;52.916;12.834;2022-12-18T08:21:18;102861.06;;;-4.79;71.49
29825;BME280;16713;52.916;12.834;2022-12-18T08:23:47;102864.16;;;-4.75;71.63
29825;BME280;16713;52.916;12.834;2022-12-18T08:26:14;102868.50;;;-4.68;71.57
29825;BME280;16713;52.916;12.834;2022-12-18T08:28:41;102871.34;;;-4.76;71.13
29825;BME280;16713;52.916;12.834;2022-12-18T08:31:08;102879.38;;;-4.76;71.19
29825;BME280;16713;52.916;12.834;2022-12-18T08:33:36;102883.53;;;-4.73;71.77
29825;BME280;16713;52.916;12.834;2022-12-18T08:36:05;102877.78;;;-4.64;71.35
29825;BME280;16713;52.916;12.834;2022-12-18T08:38:32;102875.13;;;-4.64;71.94
29825;BME280;16713;52.916;12.834;2022-12-18T08:41:08;102880.06;;;-4.61;71.61
29825;BME280;16713;52.916;12.834;2022-12-18T08:43:35;102889.16;;;-4.49;70.93
29825;BME280;16713;52.916;12.834;2022-12-18T08:46:21;102889.75;;;-4.53;71.61
29825;BME280;16713;52.916;12.834;2022-12-18T08:48:51;102894.72;;;-4.50;71.42
29825;BME280;16713;52.916;12.834;2022-12-18T08:51:18;102892.25;;;-4.45;71.76
29825;BME280;16713;52.916;12.834;2022-12-18T08:53:45;102893.50;;;-4.48;71.80
29825;BME280;16713;52.916;12.834;2022-12-18T08:56:13;102906.06;;;-4.48;71.82
29825;BME280;16713;52.916;12.834;2022-12-18T08:58:41;102908.97;;;-4.43;71.79
29825;BME280;16713;52.916;12.834;2022-12-18T09:01:09;102905.47;;;-4.37;71.64
29825;BME280;16713;52.916;12.834;2022-12-18T09:03:37;102904.47;;;-4.36;71.79
29825;BME280;16713;52.916;12.834;2022-12-18T09:06:05;102909.81;;;-4.36;72.06
29825;BME280;16713;52.916;12.834;2022-12-18T09:08:32;102902.16;;;-4.39;71.56
29825;BME280;16713;52.916;12.834;2022-12-18T09:10:58;102906.31;;;-4.37;71.81
29825;BME280;16713;52.916;12.834;2022-12-18T09:13:25;102907.31;;;-4.38;71.55
29825;BME280;16713;52.916;12.834;2022-12-18T09:15:53;102910.81;;;-4.37;71.89
29825;BME280;16713;52.916;12.834;2022-12-18T09:18:20;102911.88;;;-4.32;71.76
29825;BME280;16713;52.916;12.834;2022-12-18T09:20:47;102910.63;;;-4.36;71.60
29825;BME280;16713;52.916;12.834;2022-12-18T09:23:14;102906.75;;;-4.27;72.04
29825;BME280;16713;52.916;12.834;2022-12-18T09:25:40;102894.78;;;-4.24;71.94
29825;BME280;16713;52.916;12.834;2022-12-18T09:28:12;102886.13;;;-4.20;72.07
29825;BME280;16713;52.916;12.834;2022-12-18T09:30:43;102888.81;;;-4.20;72.06
29825;BME280;16713;52.916;12.834;2022-12-18T09:33:11;102867.41;;;-4.13;71.63
29825;BME280;16713;52.916;12.834;2022-12-18T09:35:39;102862.47;;;-4.10;71.35
29825;BME280;16713;52.916;12.834;2022-12-18T09:38:08;102858.75;;;-4.09;71.88
29825;BME280;16713;52.916;12.834;2022-12-18T09:40:55;102860.19;;;-4.13;71.36
29825;BME280;16713;52.916;12.834;2022-12-18T09:43:32;102856.69;;;-4.13;71.75
29825;BME280;16713;52.916;12.834;2022-12-18T09:46:06;102858.53;;;-4.01;71.62
29825;BME280;16713;52.916;12.834;2022-12-18T09:48:40;102859.59;;;-4.02;71.45
29825;BME280;16713;52.916;12.834;2022-12-18T09:51:15;102860.41;;;-4.01;72.24
29825;BME280;16713;52.916;12.834;2022-12-18T09:53:56;102855.28;;;-4.03;71.30
29825;BME280;16713;52.916;12.834;2022-12-18T09:56:26;102857.53;;;-3.87;71.53
29825;BME280;16713;52.916;12.834;2022-12-18T09:58:59;102854.66;;;-3.92;72.02
29825;BME280;16713;52.916;12.834;2022-12-18T10:01:27;102854.84;;;-3.93;72.07
29825;BME280;16713;52.916;12.834;2022-12-18T10:04:08;102852.97;;;-3.93;71.66
29825;BME280;16713;52.916;12.834;2022-12-18T10:06:42;102845.78;;;-3.92;72.31
29825;BME280;16713;52.916;12.834;2022-12-18T10:12:18;102845.34;;;-3.89;71.71
29825;BME280;16713;52.916;12.834;2022-12-18T10:15:19;102840.22;;;-3.84;71.99
29825;BME280;16713;52.916;12.834;2022-12-18T10:20:52;102842.88;;;-3.91;71.95
29825;BME280;16713;52.916;12.834;2022-12-18T10:28:20;102830.72;;;-3.73;72.15
29825;BME280;16713;52.916;12.834;2022-12-18T10:30:46;102827.22;;;-3.74;71.56
29825;BME280;16713;52.916;12.834;2022-12-18T10:33:21;102823.09;;;-3.83;71.64
29825;BME280;16713;52.916;12.834;2022-12-18T10:35:51;102828.06;;;-3.80;71.37
29825;BME280;16713;52.916;12.834;2022-12-18T10:48:56;102827.22;;;-3.67;71.54
29825;BME280;16713;52.916;12.834;2022-12-18T10:51:30;102822.06;;;-3.62;71.57
29825;BME280;16713;52.916;12.834;2022-12-18T10:54:01;102828.44;;;-3.57;71.73
29825;BME280;16713;52.916;12.834;2022-12-18T10:56:34;102834.84;;;-3.58;71.69
29825;BME280;16713;52.916;12.834;2022-12-18T10:59:04;102834.00;;;-3.58;72.15
29825;BME280;16713;52.916;12.834;2022-12-18T11:01:57;102829.47;;;-3.51;71.68
29825;BME280;16713;52.916;12.834;2022-12-18T11:04:27;102822.22;;;-3.57;72.13
29825;BME280;16713;52.916;12.834;2022-12-18T11:07:07;102829.06;;;-3.55;72.31
29825;BME280;16713;52.916;12.834;2022-12-18T11:09:37;102837.09;;;-3.48;71.60
29825;BME280;16713;52.916;12.834;2022-12-18T11:14:46;102829.25;;;-3.43;71.88
29825;BME280;16713;52.916;12.834;2022-12-18T11:17:34;102826.34;;;-3.42;72.22
29825;BME280;16713;52.916;12.834;2022-12-18T11:20:04;102817.88;;;-3.39;71.66
29825;BME280;16713;52.916;12.834;2022-12-18T11:22:36;102813.34;;;-3.38;71.75
29825;BME280;16713;52.916;12.834;2022-12-18T11:28:25;102820.34;;;-3.37;71.70
29825;BME280;16713;52.916;12.834;2022-12-18T11:31:20;102827.13;;;-3.35;72.07
29825;BME280;16713;52.916;12.834;2022-12-18T11:36:59;102834.38;;;-3.35;72.08
29825;BME280;16713;52.916;12.834;2022-12-18T11:42:02;102841.16;;;-3.26;72.68
29825;BME280;16713;52.916;12.834;2022-12-18T11:51:00;102837.63;;;-3.27;71.77
29825;BME280;16713;52.916;12.834;2022-12-18T11:53:00;102849.59;;;-3.23;72.71
29825;BME280;16713;52.916;12.834;2022-12-18T11:55:56;102845.91;;;-3.28;72.30
29825;BME280;16713;52.916;12.834;2022-12-18T12:01:52;102857.22;;;-3.13;72.61
29825;BME280;16713;52.916;12.834;2022-12-18T12:04:56;102858.84;;;-3.12;72.46
29825;BME280;16713;52.916;12.834;2022-12-18T12:10:25;102864.22;;;-3.12;72.14
29825;BME280;16713;52.916;12.834;2022-12-18T12:28:41;102864.00;;;-3.04;71.18
29825;BME280;16713;52.916;12.834;2022-12-18T12:31:14;102855.34;;;-3.00;71.84
29825;BME280;16713;52.916;12.834;2022-12-18T12:39:56;102831.13;;;-2.93;71.93
29825;BME280;16713;52.916;12.834;2022-12-18T12:43:01;102819.38;;;-2.99;71.79
29825;BME280;16713;52.916;12.834;2022-12-18T12:51:22;102813.81;;;-2.97;71.90
29825;BME280;16713;52.916;12.834;2022-12-18T12:53:58;102824.16;;;-3.07;70.92
29825;BME280;16713;52.916;12.834;2022-12-18T12:56:50;102833.03;;;-3.00;71.33
29825;BME280;16713;52.916;12.834;2022-12-18T13:05:03;102832.63;;;-3.04;72.02
29825;BME280;16713;52.916;12.834;2022-12-18T13:07:40;102829.28;;;-2.99;71.94
29825;BME280;16713;52.916;12.834;2022-12-18T13:10:31;102813.41;;;-3.01;71.82
29825;BME280;16713;52.916;12.834;2022-12-18T13:13:12;102815.66;;;-2.98;71.57
29825;BME280;16713;52.916;12.834;2022-12-18T13:16:08;102813.19;;;-2.99;71.93
29825;BME280;16713;52.916;12.834;2022-12-18T13:18:51;102802.44;;;-2.93;72.22
29825;BME280;16713;52.916;12.834;2022-12-18T13:21:33;102808.19;;;-2.89;72.10
29825;BME280;16713;52.916;12.834;2022-12-18T13:24:26;102804.47;;;-2.88;71.83
29825;BME280;16713;52.916;12.834;2022-12-18T13:36:33;102791.03;;;-2.88;72.13
29825;BME280;16713;52.916;12.834;2022-12-18T13:39:10;102784.06;;;-2.96;71.72
29825;BME280;16713;52.916;12.834;2022-12-18T13:41:54;102781.41;;;-3.02;71.08
29825;BME280;16713;52.916;12.834;2022-12-18T13:45:38;102778.53;;;-3.07;71.42
29825;BME280;16713;52.916;12.834;2022-12-18T13:48:15;102774.22;;;-3.08;72.32
29825;BME280;16713;52.916;12.834;2022-12-18T13:50:42;102764.31;;;-3.08;72.05
29825;BME280;16713;52.916;12.834;2022-12-18T13:53:21;102755.44;;;-3.08;71.65
29825;BME280;16713;52.916;12.834;2022-12-18T13:55:49;102756.28;;;-3.08;71.74
29825;BME280;16713;52.916;12.834;2022-12-18T13:58:16;102757.28;;;-3.09;71.95
29825;BME280;16713;52.916;12.834;2022-12-18T14:00:43;102761.78;;;-3.03;71.97
29825;BME280;16713;52.916;12.834;2022-12-18T14:03:24;102755.84;;;-3.05;72.40
29825;BME280;16713;52.916;12.834;2022-12-18T14:06:05;102744.25;;;-2.99;72.38
29825;BME280;16713;52.916;12.834;2022-12-18T14:08:39;102740.13;;;-3.01;72.22
29825;BME280;16713;52.916;12.834;2022-12-18T14:11:19;102735.78;;;-3.02;72.44
29825;BME280;16713;52.916;12.834;2022-12-18T14:13:47;102713.88;;;-2.99;72.27
29825;BME280;16713;52.916;12.834;2022-12-18T14:16:15;102714.50;;;-2.97;72.40
29825;BME280;16713;52.916;12.834;2022-12-18T14:18:51;102728.34;;;-3.00;72.25
29825;BME280;16713;52.916;12.834;2022-12-18T14:21:21;102728.13;;;-2.99;71.88
29825;BME280;16713;52.916;12.834;2022-12-18T14:24:04;102717.19;;;-2.97;72.59
29825;BME280;16713;52.916;12.834;2022-12-18T14:26:32;102710.19;;;-2.98;72.52
29825;BME280;16713;52.916;12.834;2022-12-18T14:34:37;102687.19;;;-2.88;73.34
29825;BME280;16713;52.916;12.834;2022-12-18T14:37:03;102681.81;;;-2.88;73.05
29825;BME280;16713;52.916;12.834;2022-12-18T14:39:30;102691.28;;;-2.85;72.18
29825;BME280;16713;52.916;12.834;2022-12-18T14:41:56;102684.28;;;-2.86;72.35
29825;BME280;16713;52.916;12.834;2022-12-18T14:44:23;102704.72;;;-2.85;73.05
29825;BME280;16713;52.916;12.834;2022-12-18T14:46:50;102716.50;;;-2.86;73.24
29825;BME280;16713;52.916;12.834;2022-12-18T14:49:21;102724.13;;;-2.83;72.91
29825;BME280;16713;52.916;12.834;2022-12-18T14:51:52;102726.38;;;-2.80;73.15
29825;BME280;16713;52.916;12.834;2022-12-18T14:54:20;102732.16;;;-2.83;72.50
29825;BME280;16713;52.916;12.834;2022-12-18T14:56:50;102728.25;;;-2.81;73.06
29825;BME280;16713;52.916;12.834;2022-12-18T14:59:23;102720.19;;;-2.81;72.90